Time;durP1;ratioP1;P1;durP2;ratioP2;P2;SDS_P1;SDS_P2;PMS_P1;PMS_P2;Temp;Humidity;BMP_temperature;BMP_pressure;BME280_temperature;BME280_humidity;BME280_pressure;Samples;Min_cycle;Max_cycle;Signal;HPM_P1;HPM_P2
2021/10/01 00:01:40;;;;;;;8.35;5.05;;;;;;;;;;4437346;32;20213;-53
2021/10/01 00:04:05;;;;;;;8.60;4.85;;;;;;;;;;4447771;32;20307;-53
2021/10/01 00:06:31;;;;;;;10.60;5.32;;;;;;;;;;4447449;32;20234;-53
2021/10/01 00:08:56;;;;;;;11.55;5.20;;;;;;;;;;4447568;32;20287;-54
2021/10/01 00:11:22;;;;;;;7.62;4.82;;;;;;;;;;4447576;32;20213;-53
2021/10/01 00:13:48;;;;;;;14.73;5.60;;;;;;;;;;4447657;32;20255;-52
2021/10/01 00:16:15;;;;;;;9.32;4.45;;;;;;;;;;4447187;32;20366;-52
2021/10/01 00:18:41;;;;;;;9.85;4.97;;;;;;;;;;4446201;32;20287;-53
2021/10/01 00:21:06;;;;;;;8.65;4.50;;;;;;;;;;4447386;32;20802;-53
2021/10/01 00:23:33;;;;;;;11.12;5.55;;;;;;;;;;4447522;32;20292;-52
2021/10/01 00:25:58;;;;;;;9.18;5.40;;;;;;;;;;4447295;32;20570;-52
2021/10/01 00:28:24;;;;;;;13.07;6.40;;;;;;;;;;4447702;32;20264;-52
2021/10/01 00:30:49;;;;;;;8.02;5.35;;;;;;;;;;4447550;32;20232;-52
2021/10/01 00:33:15;;;;;;;11.77;5.87;;;;;;;;;;4447171;32;20268;-52
2021/10/01 00:35:41;;;;;;;19.77;7.55;;;;;;;;;;4447312;32;20748;-52
2021/10/01 00:38:06;;;;;;;13.23;6.32;;;;;;;;;;4447562;32;20741;-52
2021/10/01 00:40:32;;;;;;;13.05;7.70;;;;;;;;;;4448420;32;20306;-52
2021/10/01 00:42:57;;;;;;;21.80;8.15;;;;;;;;;;4450348;32;20224;-53
2021/10/01 00:45:23;;;;;;;14.40;6.15;;;;;;;;;;4449307;32;20323;-53
2021/10/01 00:47:48;;;;;;;12.98;7.03;;;;;;;;;;4450460;32;20652;-53
2021/10/01 00:50:14;;;;;;;9.25;5.55;;;;;;;;;;4450209;32;20299;-53
2021/10/01 00:52:40;;;;;;;11.82;6.45;;;;;;;;;;4450103;32;20313;-53
2021/10/01 00:55:06;;;;;;;11.43;5.95;;;;;;;;;;4450124;32;20302;-54
2021/10/01 00:57:32;;;;;;;11.10;6.15;;;;;;;;;;4450428;32;20628;-53
2021/10/01 00:59:58;;;;;;;11.40;5.85;;;;;;;;;;4450450;32;20298;-54
2021/10/01 01:02:23;;;;;;;9.85;5.85;;;;;;;;;;4439485;32;20258;-53
2021/10/01 01:04:50;;;;;;;11.25;6.62;;;;;;;;;;4434819;32;20288;-54
2021/10/01 01:07:27;;;;;;;13.90;6.97;;;;;;;;;;4436996;32;20303;-53
2021/10/01 01:09:55;;;;;;;11.12;6.35;;;;;;;;;;4450428;32;20291;-53
2021/10/01 01:12:48;;;;;;;12.77;5.97;;;;;;;;;;4450286;32;20307;-53
2021/10/01 01:15:28;;;;;;;11.15;5.40;;;;;;;;;;4450033;32;20244;-53
2021/10/01 01:18:13;;;;;;;9.60;5.30;;;;;;;;;;4450196;32;20232;-53
2021/10/01 01:20:49;;;;;;;12.55;6.25;;;;;;;;;;4449905;32;20201;-53
2021/10/01 01:23:53;;;;;;;8.85;5.40;;;;;;;;;;4450075;32;20326;-53
2021/10/01 01:26:24;;;;;;;9.38;4.53;;;;;;;;;;4449922;32;20274;-53
2021/10/01 01:28:56;;;;;;;9.40;4.22;;;;;;;;;;4449717;32;20240;-53
2021/10/01 01:31:40;;;;;;;9.48;4.95;;;;;;;;;;4450030;32;20213;-53
2021/10/01 01:34:06;;;;;;;7.50;4.32;;;;;;;;;;4449714;32;20569;-53
2021/10/01 01:36:34;;;;;;;10.18;4.20;;;;;;;;;;4449721;32;20549;-53
2021/10/01 01:39:01;;;;;;;11.30;4.15;;;;;;;;;;4449963;32;20250;-53
2021/10/01 01:41:29;;;;;;;10.40;3.97;;;;;;;;;;4449627;32;20355;-53
2021/10/01 01:43:56;;;;;;;3.25;2.95;;;;;;;;;;4449699;32;20618;-51
2021/10/01 01:46:23;;;;;;;9.43;4.62;;;;;;;;;;4449822;32;20224;-51
2021/10/01 01:48:49;;;;;;;5.03;3.75;;;;;;;;;;4449999;32;20754;-51
2021/10/01 01:51:16;;;;;;;8.70;4.55;;;;;;;;;;4449374;32;20264;-51
2021/10/01 01:53:43;;;;;;;7.10;4.30;;;;;;;;;;4449504;32;20233;-52
2021/10/01 01:56:10;;;;;;;7.93;4.25;;;;;;;;;;4449393;32;20224;-52
2021/10/01 01:58:36;;;;;;;12.40;3.60;;;;;;;;;;4449255;32;20538;-51
2021/10/01 02:01:03;;;;;;;6.75;3.90;;;;;;;;;;4449121;32;20421;-51
2021/10/01 02:03:30;;;;;;;7.22;4.18;;;;;;;;;;4449113;32;20280;-51
2021/10/01 02:05:58;;;;;;;15.20;3.70;;;;;;;;;;4449475;32;20318;-51
2021/10/01 02:08:25;;;;;;;5.63;3.70;;;;;;;;;;4449472;32;20635;-51
2021/10/01 02:10:52;;;;;;;7.55;4.65;;;;;;;;;;4449354;32;20238;-52
2021/10/01 02:13:19;;;;;;;8.65;3.58;;;;;;;;;;4448960;32;20220;-52
2021/10/01 02:15:45;;;;;;;13.00;4.93;;;;;;;;;;4449211;32;20252;-54
2021/10/01 02:18:11;;;;;;;12.03;4.70;;;;;;;;;;4449116;32;20353;-52
2021/10/01 02:20:39;;;;;;;7.25;3.97;;;;;;;;;;4449309;32;20279;-52
2021/10/01 02:23:05;;;;;;;10.35;4.85;;;;;;;;;;4449218;32;20270;-52
2021/10/01 02:28:29;;;;;;;7.90;4.25;;;;;;;;;;4448978;32;20270;-53
2021/10/01 02:30:55;;;;;;;8.43;4.20;;;;;;;;;;4449107;32;20227;-52
2021/10/01 02:33:31;;;;;;;9.88;4.03;;;;;;;;;;4448722;32;20323;-52
2021/10/01 02:35:57;;;;;;;7.60;4.20;;;;;;;;;;4448882;32;20272;-52
2021/10/01 02:38:22;;;;;;;7.62;4.12;;;;;;;;;;4449083;32;20576;-52
2021/10/01 02:40:48;;;;;;;7.53;4.62;;;;;;;;;;4449012;32;20357;-53
2021/10/01 02:43:13;;;;;;;7.55;4.70;;;;;;;;;;4448557;32;20320;-52
2021/10/01 02:45:39;;;;;;;8.27;4.70;;;;;;;;;;4448803;32;20275;-52
2021/10/01 02:48:04;;;;;;;8.00;4.75;;;;;;;;;;4448637;32;20653;-52
2021/10/01 02:50:30;;;;;;;6.87;4.35;;;;;;;;;;4448448;32;20275;-52
2021/10/01 02:53:06;;;;;;;9.35;5.03;;;;;;;;;;4448605;32;20335;-52
2021/10/01 02:55:58;;;;;;;13.75;5.55;;;;;;;;;;4448692;32;20201;-52
2021/10/01 02:58:35;;;;;;;12.82;6.15;;;;;;;;;;4451854;32;20589;-52
2021/10/01 03:01:05;;;;;;;10.93;4.72;;;;;;;;;;4447716;32;20201;-52
2021/10/01 03:03:35;;;;;;;14.95;6.22;;;;;;;;;;4448248;32;20511;-52
2021/10/01 03:06:02;;;;;;;5.65;4.32;;;;;;;;;;4448382;32;20247;-52
2021/10/01 03:08:30;;;;;;;10.68;5.35;;;;;;;;;;4448394;32;20212;-52
2021/10/01 03:10:56;;;;;;;6.62;4.65;;;;;;;;;;4448375;32;20229;-52
2021/10/01 03:13:23;;;;;;;17.85;5.85;;;;;;;;;;4448307;32;20288;-52
2021/10/01 03:15:50;;;;;;;21.48;6.93;;;;;;;;;;4448162;32;20236;-52
2021/10/01 03:18:17;;;;;;;16.02;5.32;;;;;;;;;;4448071;32;20677;-52
2021/10/01 03:20:43;;;;;;;9.18;5.72;;;;;;;;;;4445535;32;20574;-52
2021/10/01 03:23:10;;;;;;;14.80;6.07;;;;;;;;;;4448305;32;20216;-52
2021/10/01 03:25:38;;;;;;;12.25;4.85;;;;;;;;;;4448188;32;20358;-52
2021/10/01 03:28:04;;;;;;;10.60;4.72;;;;;;;;;;4448111;32;20208;-51
2021/10/01 03:30:29;;;;;;;14.00;5.45;;;;;;;;;;4448244;32;20709;-52
2021/10/01 03:32:55;;;;;;;6.78;4.40;;;;;;;;;;4447955;32;20228;-51
2021/10/01 03:35:20;;;;;;;5.82;4.25;;;;;;;;;;4448487;32;20284;-51
2021/10/01 03:37:46;;;;;;;14.13;4.80;;;;;;;;;;4448241;32;20319;-51
2021/10/01 03:40:13;;;;;;;11.23;5.35;;;;;;;;;;4447993;32;20688;-53
2021/10/01 03:42:40;;;;;;;6.35;4.28;;;;;;;;;;4447890;32;20275;-51
2021/10/01 03:45:08;;;;;;;12.02;5.10;;;;;;;;;;4447998;32;20362;-52
2021/10/01 03:47:34;;;;;;;11.95;6.82;;;;;;;;;;4448077;32;20228;-51
2021/10/01 03:49:59;;;;;;;13.30;6.37;;;;;;;;;;4447901;32;20718;-53
2021/10/01 03:52:25;;;;;;;12.00;7.25;;;;;;;;;;4447888;32;20220;-51
2021/10/01 03:54:51;;;;;;;19.60;8.27;;;;;;;;;;4447531;32;20358;-54
2021/10/01 03:57:17;;;;;;;26.33;10.10;;;;;;;;;;4447330;32;20804;-52
2021/10/01 03:59:43;;;;;;;22.62;9.60;;;;;;;;;;4447766;32;20310;-53
2021/10/01 04:02:08;;;;;;;19.02;8.88;;;;;;;;;;4446963;32;20277;-52
2021/10/01 04:04:34;;;;;;;19.58;7.90;;;;;;;;;;4447979;32;20315;-52
2021/10/01 04:07:01;;;;;;;16.58;8.77;;;;;;;;;;4447345;32;20261;-52
2021/10/01 04:09:27;;;;;;;17.98;8.95;;;;;;;;;;4447775;32;20268;-51
2021/10/01 04:11:54;;;;;;;20.83;9.80;;;;;;;;;;4447639;32;20303;-51
2021/10/01 04:14:21;;;;;;;18.33;7.75;;;;;;;;;;4447006;32;20240;-52
2021/10/01 04:16:46;;;;;;;15.80;8.68;;;;;;;;;;4446982;32;20283;-52
2021/10/01 04:19:12;;;;;;;14.87;7.65;;;;;;;;;;4447044;32;20259;-51
2021/10/01 04:21:37;;;;;;;10.45;5.87;;;;;;;;;;4447264;32;20256;-52
2021/10/01 04:24:03;;;;;;;12.37;6.57;;;;;;;;;;4447558;32;20244;-52
2021/10/01 04:26:28;;;;;;;10.15;5.62;;;;;;;;;;4447906;32;20205;-52
2021/10/01 04:28:54;;;;;;;15.30;8.57;;;;;;;;;;4447346;32;20283;-52
2021/10/01 04:31:20;;;;;;;17.77;9.63;;;;;;;;;;4447467;32;20243;-52
2021/10/01 04:33:45;;;;;;;26.20;11.18;;;;;;;;;;4436808;32;20627;-52
2021/10/01 04:36:12;;;;;;;41.97;11.50;;;;;;;;;;4431876;32;20287;-52
2021/10/01 04:38:39;;;;;;;27.27;11.02;;;;;;;;;;4431870;32;20613;-53
2021/10/01 04:41:04;;;;;;;30.62;9.52;;;;;;;;;;4432027;32;20413;-51
2021/10/01 04:43:30;;;;;;;14.02;9.05;;;;;;;;;;4432157;32;20221;-52
2021/10/01 04:45:56;;;;;;;24.37;9.30;;;;;;;;;;4432142;32;20668;-52
2021/10/01 04:48:21;;;;;;;29.90;10.05;;;;;;;;;;4431680;32;20635;-53
2021/10/01 04:50:47;;;;;;;19.17;9.13;;;;;;;;;;4437209;32;20209;-54
2021/10/01 04:53:13;;;;;;;21.77;9.70;;;;;;;;;;4447219;32;20228;-53
2021/10/01 04:55:38;;;;;;;18.37;10.65;;;;;;;;;;4447226;32;20634;-53
2021/10/01 04:58:06;;;;;;;19.58;9.38;;;;;;;;;;4446947;32;20276;-53
2021/10/01 05:00:33;;;;;;;17.23;8.75;;;;;;;;;;4447517;32;20539;-52
2021/10/01 05:03:00;;;;;;;18.92;8.85;;;;;;;;;;4446845;32;20241;-52
2021/10/01 05:05:25;;;;;;;15.60;9.10;;;;;;;;;;4447101;32;20591;-53
2021/10/01 05:07:51;;;;;;;18.30;9.48;;;;;;;;;;4446147;32;20225;-52
2021/10/01 05:10:18;;;;;;;18.77;9.40;;;;;;;;;;4447493;32;20331;-52
2021/10/01 05:12:43;;;;;;;29.02;11.95;;;;;;;;;;4446952;32;20291;-53
2021/10/01 05:15:10;;;;;;;34.20;10.40;;;;;;;;;;4447560;32;20275;-54
2021/10/01 05:17:38;;;;;;;24.58;9.82;;;;;;;;;;4447738;32;20549;-54
2021/10/01 05:20:06;;;;;;;20.95;8.35;;;;;;;;;;4447312;32;20201;-53
2021/10/01 05:22:32;;;;;;;13.00;7.80;;;;;;;;;;4447728;32;20247;-53
2021/10/01 05:24:57;;;;;;;13.13;6.68;;;;;;;;;;4446308;32;20286;-53
2021/10/01 05:27:23;;;;;;;12.23;7.68;;;;;;;;;;4448941;32;20347;-53
2021/10/01 05:29:49;;;;;;;18.50;7.15;;;;;;;;;;4450328;32;20270;-54
2021/10/01 05:32:14;;;;;;;19.00;7.60;;;;;;;;;;4449839;32;20266;-52
2021/10/01 05:34:40;;;;;;;11.27;6.05;;;;;;;;;;4449715;32;20612;-54
2021/10/01 05:37:06;;;;;;;20.67;7.28;;;;;;;;;;4449709;32;20731;-52
2021/10/01 05:39:32;;;;;;;10.23;6.97;;;;;;;;;;4449896;32;20671;-52
2021/10/01 05:41:58;;;;;;;9.05;6.70;;;;;;;;;;4449901;32;20475;-53
2021/10/01 05:44:24;;;;;;;12.73;7.57;;;;;;;;;;4449770;32;20302;-53
2021/10/01 05:46:49;;;;;;;15.02;7.22;;;;;;;;;;4449863;32;20201;-52
2021/10/01 05:49:27;;;;;;;11.63;6.43;;;;;;;;;;4449246;32;20660;-51
2021/10/01 05:52:00;;;;;;;9.90;6.45;;;;;;;;;;4449311;32;20265;-51
2021/10/01 05:54:26;;;;;;;18.40;6.75;;;;;;;;;;4449437;32;20204;-53
2021/10/01 05:56:55;;;;;;;15.60;7.75;;;;;;;;;;4449402;32;20304;-52
2021/10/01 05:59:21;;;;;;;19.73;7.78;;;;;;;;;;4449403;32;20297;-53
2021/10/01 06:01:48;;;;;;;10.68;6.10;;;;;;;;;;4449052;32;20268;-52
2021/10/01 06:04:14;;;;;;;14.07;6.37;;;;;;;;;;4449313;32;20769;-52
2021/10/01 06:06:39;;;;;;;10.68;6.18;;;;;;;;;;4449169;32;20193;-52
2021/10/01 06:09:09;;;;;;;10.77;7.93;;;;;;;;;;4449119;32;20220;-52
2021/10/01 06:11:37;;;;;;;10.90;7.62;;;;;;;;;;4449252;32;20193;-51
2021/10/01 06:14:04;;;;;;;12.65;6.87;;;;;;;;;;4449228;32;20546;-51
2021/10/01 06:16:30;;;;;;;11.75;7.20;;;;;;;;;;4449130;32;20186;-51
2021/10/01 06:18:55;;;;;;;14.95;6.82;;;;;;;;;;4448847;32;20744;-51
2021/10/01 06:21:21;;;;;;;7.10;5.82;;;;;;;;;;4448672;32;20209;-51
2021/10/01 06:23:46;;;;;;;6.62;5.10;;;;;;;;;;4449118;32;20729;-51
2021/10/01 06:26:12;;;;;;;10.30;6.32;;;;;;;;;;4447419;32;20233;-52
2021/10/01 06:28:37;;;;;;;9.93;5.05;;;;;;;;;;4449518;32;20247;-51
2021/10/01 06:31:03;;;;;;;8.73;5.03;;;;;;;;;;4448812;32;20272;-52
2021/10/01 06:33:29;;;;;;;10.07;5.35;;;;;;;;;;4440055;32;20221;-51
2021/10/01 06:35:54;;;;;;;12.60;5.30;;;;;;;;;;4433354;32;20247;-51
2021/10/01 06:38:20;;;;;;;6.82;4.95;;;;;;;;;;4432957;32;20286;-52
2021/10/01 06:40:46;;;;;;;7.05;4.90;;;;;;;;;;4433093;32;20184;-53
2021/10/01 06:43:14;;;;;;;8.13;4.90;;;;;;;;;;4437487;32;20608;-51
2021/10/01 06:45:40;;;;;;;8.18;5.15;;;;;;;;;;4448172;32;20217;-51
2021/10/01 06:48:23;;;;;;;8.98;5.70;;;;;;;;;;4448131;32;20636;-51
2021/10/01 08:20:49;;;;;;;6.87;4.57;;;;;;;;;;4447131;32;20242;-52
2021/10/01 08:23:15;;;;;;;7.95;5.97;;;;;;;;;;4447369;32;20308;-52
2021/10/01 08:25:42;;;;;;;7.00;4.82;;;;;;;;;;4447135;32;20240;-52
2021/10/01 08:28:07;;;;;;;13.45;5.32;;;;;;;;;;4447525;32;20242;-52
2021/10/01 08:30:34;;;;;;;16.20;7.47;;;;;;;;;;4447247;32;20283;-52
2021/10/01 08:33:00;;;;;;;17.05;5.68;;;;;;;;;;4447082;32;20525;-52
2021/10/01 08:35:26;;;;;;;14.70;7.40;;;;;;;;;;4447513;32;20275;-52
2021/10/01 08:37:53;;;;;;;8.43;5.68;;;;;;;;;;4447017;32;20748;-52
2021/10/01 08:40:20;;;;;;;9.10;5.07;;;;;;;;;;4447253;32;20794;-53
2021/10/01 08:42:47;;;;;;;11.57;5.85;;;;;;;;;;4447541;32;20220;-53
2021/10/01 08:45:15;;;;;;;10.57;7.30;;;;;;;;;;4447276;32;20288;-53
2021/10/01 08:47:42;;;;;;;7.45;5.07;;;;;;;;;;4447406;32;20212;-53
2021/10/01 08:50:10;;;;;;;14.10;7.75;;;;;;;;;;4447323;32;20224;-52
2021/10/01 08:52:35;;;;;;;12.10;5.12;;;;;;;;;;4446955;32;20587;-50
2021/10/01 08:55:02;;;;;;;13.65;7.72;;;;;;;;;;4447226;32;20280;-52
2021/10/01 08:57:28;;;;;;;9.63;6.25;;;;;;;;;;4446945;32;20637;-51
2021/10/01 08:59:54;;;;;;;11.50;5.28;;;;;;;;;;4446844;32;20279;-52
2021/10/01 09:02:19;;;;;;;10.35;5.72;;;;;;;;;;4448269;32;20221;-50
2021/10/01 09:04:45;;;;;;;13.65;4.82;;;;;;;;;;4450268;32;20268;-51
2021/10/01 09:07:10;;;;;;;6.68;4.50;;;;;;;;;;4449993;32;20619;-51
2021/10/01 09:09:43;;;;;;;10.75;4.15;;;;;;;;;;4450124;32;20366;-52
2021/10/01 09:12:13;;;;;;;17.12;8.68;;;;;;;;;;4449174;32;20249;-52
2021/10/01 09:14:44;;;;;;;16.35;7.65;;;;;;;;;;4450093;32;20209;-52
2021/10/01 09:17:12;;;;;;;8.25;4.87;;;;;;;;;;4449688;32;20201;-52
2021/10/01 09:19:40;;;;;;;12.07;6.30;;;;;;;;;;4450064;32;20640;-52
2021/10/01 09:22:05;;;;;;;16.40;5.20;;;;;;;;;;4449104;32;20343;-52
2021/10/01 09:24:30;;;;;;;10.07;4.22;;;;;;;;;;4449920;32;20622;-52
2021/10/01 09:26:57;;;;;;;8.00;4.43;;;;;;;;;;4449233;32;20283;-54
2021/10/01 09:29:34;;;;;;;12.88;6.68;;;;;;;;;;4448662;32;20262;-52
2021/10/01 09:32:07;;;;;;;11.25;4.55;;;;;;;;;;4449250;32;20635;-53
2021/10/01 09:34:40;;;;;;;9.27;3.95;;;;;;;;;;4442692;32;20245;-53
2021/10/01 09:37:07;;;;;;;7.05;4.82;;;;;;;;;;4448253;32;20329;-52
2021/10/01 09:39:36;;;;;;;8.90;4.55;;;;;;;;;;4449572;32;20784;-52
2021/10/01 09:42:11;;;;;;;8.82;4.57;;;;;;;;;;4449082;32;20227;-52
2021/10/01 09:44:46;;;;;;;15.90;4.53;;;;;;;;;;4449085;32;20609;-53
2021/10/01 09:47:11;;;;;;;12.48;5.05;;;;;;;;;;4449272;32;20196;-52
2021/10/01 09:49:37;;;;;;;8.88;5.03;;;;;;;;;;4449404;32;20290;-54
2021/10/01 09:52:03;;;;;;;10.48;4.53;;;;;;;;;;4449060;32;20219;-52
2021/10/01 09:54:29;;;;;;;8.82;5.25;;;;;;;;;;4449227;32;20313;-53
2021/10/01 09:57:04;;;;;;;9.40;4.72;;;;;;;;;;4448889;32;20664;-53
2021/10/01 09:59:30;;;;;;;4.78;4.18;;;;;;;;;;4449562;32;20800;-52
2021/10/01 10:02:07;;;;;;;10.98;5.03;;;;;;;;;;4448631;32;20314;-54
2021/10/01 10:04:40;;;;;;;8.70;5.25;;;;;;;;;;4449591;32;20272;-52
2021/10/01 10:07:14;;;;;;;12.25;4.75;;;;;;;;;;4449764;32;20248;-52
2021/10/01 10:09:45;;;;;;;8.45;4.55;;;;;;;;;;4448303;32;20263;-52
2021/10/01 10:12:14;;;;;;;11.70;5.03;;;;;;;;;;4448961;32;20363;-53
2021/10/01 10:14:47;;;;;;;12.43;4.22;;;;;;;;;;4448811;32;20301;-52
2021/10/01 10:17:15;;;;;;;14.38;6.03;;;;;;;;;;4449618;32;20205;-52
2021/10/01 10:19:40;;;;;;;19.00;7.78;;;;;;;;;;4449154;32;20244;-53
2021/10/01 10:22:06;;;;;;;21.45;11.30;;;;;;;;;;4449188;32;20322;-52
2021/10/01 10:24:31;;;;;;;26.50;9.88;;;;;;;;;;4449554;32;20351;-53
2021/10/01 10:26:57;;;;;;;13.55;8.25;;;;;;;;;;4449165;32;20296;-53
2021/10/01 10:29:24;;;;;;;10.80;6.62;;;;;;;;;;4449212;32;20366;-54
2021/10/01 10:31:51;;;;;;;8.90;6.47;;;;;;;;;;4449318;32;20217;-53
2021/10/01 10:34:27;;;;;;;22.90;12.25;;;;;;;;;;4448999;32;20330;-53
2021/10/01 10:37:12;;;;;;;9.88;6.20;;;;;;;;;;4449144;32;20205;-53
2021/10/01 10:40:08;;;;;;;7.32;5.60;;;;;;;;;;4448764;32;20243;-53
2021/10/01 10:42:44;;;;;;;21.65;7.00;;;;;;;;;;4448993;32;20602;-53
2021/10/01 10:45:24;;;;;;;23.05;7.47;;;;;;;;;;4448681;32;20196;-53
2021/10/01 10:48:11;;;;;;;7.22;3.65;;;;;;;;;;4449191;32;20213;-52
2021/10/01 10:50:43;;;;;;;12.57;4.47;;;;;;;;;;4449234;32;20443;-53
2021/10/01 10:53:11;;;;;;;13.18;5.90;;;;;;;;;;4448824;32;20545;-53
2021/10/01 10:55:59;;;;;;;7.97;4.90;;;;;;;;;;4448791;32;20299;-51
2021/10/01 10:58:27;;;;;;;14.20;6.55;;;;;;;;;;4449265;32;20277;-52
2021/10/01 11:01:21;;;;;;;6.75;4.72;;;;;;;;;;4447552;32;20200;-52
2021/10/01 11:03:51;;;;;;;11.73;5.15;;;;;;;;;;4433392;32;20420;-53
2021/10/01 11:06:18;;;;;;;6.68;4.57;;;;;;;;;;4433465;32;20307;-52
2021/10/01 11:08:45;;;;;;;8.43;4.47;;;;;;;;;;4433599;32;20271;-53
2021/10/01 11:11:29;;;;;;;5.72;3.97;;;;;;;;;;4433112;32;20221;-52
2021/10/01 11:14:12;;;;;;;9.32;5.97;;;;;;;;;;4433276;32;20838;-52
2021/10/01 11:16:38;;;;;;;17.25;6.18;;;;;;;;;;4433152;32;20201;-52
2021/10/01 11:19:05;;;;;;;7.62;4.78;;;;;;;;;;4433121;32;20592;-52
2021/10/01 11:21:34;;;;;;;15.13;5.53;;;;;;;;;;4433351;32;20663;-53
2021/10/01 11:24:16;;;;;;;13.00;4.65;;;;;;;;;;4434389;32;20249;-52
2021/10/01 11:26:42;;;;;;;10.73;5.45;;;;;;;;;;4448427;32;20662;-52
2021/10/01 11:29:26;;;;;;;18.92;5.35;;;;;;;;;;4448753;32;20610;-52
2021/10/01 11:31:56;;;;;;;5.47;4.18;;;;;;;;;;4448437;32;20281;-53
2021/10/01 11:34:39;;;;;;;9.73;5.07;;;;;;;;;;4448442;32;20621;-53
2021/10/01 11:37:26;;;;;;;15.55;7.07;;;;;;;;;;4448443;32;20623;-53
2021/10/01 11:39:54;;;;;;;13.95;6.68;;;;;;;;;;4448525;32;20222;-52
2021/10/01 11:42:25;;;;;;;9.73;4.90;;;;;;;;;;4448113;32;20676;-53
2021/10/01 11:44:51;;;;;;;7.05;4.85;;;;;;;;;;4448682;32;20239;-52
2021/10/01 11:47:17;;;;;;;12.30;4.65;;;;;;;;;;4447948;32;20761;-52
2021/10/01 11:49:51;;;;;;;7.80;5.57;;;;;;;;;;4448326;32;20294;-53
2021/10/01 11:52:17;;;;;;;11.88;4.47;;;;;;;;;;4448450;32;20441;-52
2021/10/01 11:55:00;;;;;;;8.20;5.07;;;;;;;;;;4448284;32;20581;-52
2021/10/01 11:57:40;;;;;;;6.97;4.57;;;;;;;;;;4448084;32;20448;-52
2021/10/01 12:00:09;;;;;;;8.48;4.78;;;;;;;;;;4448027;32;20330;-52
2021/10/01 12:02:43;;;;;;;10.63;4.12;;;;;;;;;;4446230;32;20262;-52
2021/10/01 12:05:20;;;;;;;7.32;4.80;;;;;;;;;;4448342;32;20740;-52
2021/10/01 12:07:58;;;;;;;9.70;4.65;;;;;;;;;;4448269;32;20327;-52
2021/10/01 12:10:27;;;;;;;14.65;5.43;;;;;;;;;;4448464;32;20236;-52
2021/10/01 12:13:14;;;;;;;9.52;4.55;;;;;;;;;;4448372;32;20665;-53
2021/10/01 12:15:48;;;;;;;15.82;4.03;;;;;;;;;;4448247;32;20592;-53
2021/10/01 12:18:29;;;;;;;8.07;4.62;;;;;;;;;;4448170;32;20278;-53
2021/10/01 12:20:57;;;;;;;14.45;5.72;;;;;;;;;;4448032;32;20577;-53
2021/10/01 12:23:29;;;;;;;6.62;4.30;;;;;;;;;;4448140;32;20644;-52
2021/10/01 12:25:55;;;;;;;10.95;4.53;;;;;;;;;;4448172;32;20625;-52
2021/10/01 12:28:21;;;;;;;7.10;4.90;;;;;;;;;;4447929;32;20224;-52
2021/10/01 12:31:01;;;;;;;6.05;4.43;;;;;;;;;;4448129;32;20200;-52
2021/10/01 12:33:27;;;;;;;6.85;4.65;;;;;;;;;;4447860;32;20326;-52
2021/10/01 12:35:53;;;;;;;6.60;4.25;;;;;;;;;;4446940;32;20267;-52
2021/10/01 12:38:18;;;;;;;11.75;4.90;;;;;;;;;;4451287;32;20237;-52
2021/10/01 12:40:44;;;;;;;7.60;4.75;;;;;;;;;;4451031;32;20325;-52
2021/10/01 12:43:09;;;;;;;11.88;5.00;;;;;;;;;;4451192;32;20410;-51
2021/10/01 12:45:39;;;;;;;9.57;4.65;;;;;;;;;;4451653;32;20739;-52
2021/10/01 12:48:16;;;;;;;8.68;4.70;;;;;;;;;;4435169;32;20225;-52
2021/10/01 12:50:42;;;;;;;7.15;4.62;;;;;;;;;;4435940;32;20238;-52
2021/10/01 12:53:10;;;;;;;6.93;4.43;;;;;;;;;;4435510;32;20224;-51
2021/10/01 12:55:35;;;;;;;8.82;4.97;;;;;;;;;;4435454;32;20774;-53
2021/10/01 12:58:01;;;;;;;9.80;5.00;;;;;;;;;;4435188;32;20268;-52
2021/10/01 13:00:30;;;;;;;5.18;4.68;;;;;;;;;;4435304;32;20315;-51
2021/10/01 13:03:04;;;;;;;6.78;4.75;;;;;;;;;;4433733;32;20255;-51
2021/10/01 13:05:31;;;;;;;18.87;5.93;;;;;;;;;;4435358;32;20197;-52
2021/10/01 13:07:56;;;;;;;5.90;4.65;;;;;;;;;;4435188;32;20320;-53
2021/10/01 13:10:40;;;;;;;7.57;3.90;;;;;;;;;;4434952;32;20311;-52
2021/10/01 13:13:28;;;;;;;8.32;4.37;;;;;;;;;;4435247;32;20278;-53
2021/10/01 13:16:04;;;;;;;8.88;4.93;;;;;;;;;;4434944;32;20244;-51
2021/10/01 13:18:36;;;;;;;15.23;4.80;;;;;;;;;;4449651;32;20343;-51
2021/10/01 13:21:02;;;;;;;7.65;4.68;;;;;;;;;;4450573;32;20240;-51
2021/10/01 13:23:37;;;;;;;8.50;5.07;;;;;;;;;;4450801;32;20251;-52
2021/10/01 13:26:48;;;;;;;7.70;5.53;;;;;;;;;;4450095;32;20192;-52
2021/10/01 13:29:13;;;;;;;10.73;4.72;;;;;;;;;;4448665;32;20224;-53
2021/10/01 13:31:42;;;;;;;9.95;4.10;;;;;;;;;;4450306;32;20232;-53
2021/10/01 13:34:08;;;;;;;6.65;4.07;;;;;;;;;;4436788;32;20333;-53
2021/10/01 13:36:33;;;;;;;13.23;5.53;;;;;;;;;;4434548;32;20589;-53
2021/10/01 13:38:59;;;;;;;8.77;4.95;;;;;;;;;;4434701;32;20576;-53
2021/10/01 13:41:25;;;;;;;10.10;5.35;;;;;;;;;;4434336;32;20314;-55
2021/10/01 13:43:51;;;;;;;16.67;9.38;;;;;;;;;;4446172;32;20263;-53
2021/10/01 13:46:19;;;;;;;15.48;9.32;;;;;;;;;;4449574;32;20510;-53
2021/10/01 13:48:44;;;;;;;8.90;5.97;;;;;;;;;;4449738;32;20284;-53
2021/10/01 13:51:10;;;;;;;10.32;5.45;;;;;;;;;;4450037;32;20467;-52
2021/10/01 13:53:36;;;;;;;11.60;7.40;;;;;;;;;;4449924;32;20294;-52
2021/10/01 13:56:02;;;;;;;16.12;5.22;;;;;;;;;;4449826;32;20211;-53
2021/10/01 13:58:28;;;;;;;9.40;5.68;;;;;;;;;;4449848;32;20240;-52
2021/10/01 14:00:55;;;;;;;8.20;5.82;;;;;;;;;;4449141;32;20688;-51
2021/10/01 14:03:21;;;;;;;7.87;4.22;;;;;;;;;;4449672;32;20228;-52
2021/10/01 14:05:48;;;;;;;10.13;7.57;;;;;;;;;;4448425;32;20213;-52
2021/10/01 14:08:15;;;;;;;14.27;6.55;;;;;;;;;;4449644;32;20344;-52
2021/10/01 14:10:40;;;;;;;6.22;4.35;;;;;;;;;;4449273;32;20196;-52
2021/10/01 14:13:11;;;;;;;7.10;4.97;;;;;;;;;;4449393;32;20317;-52
2021/10/01 14:15:40;;;;;;;6.28;4.68;;;;;;;;;;4449354;32;20309;-52
2021/10/01 14:18:06;;;;;;;12.77;7.35;;;;;;;;;;4449306;32;20675;-53
2021/10/01 14:20:32;;;;;;;11.38;7.37;;;;;;;;;;4449306;32;20380;-53
2021/10/01 14:22:59;;;;;;;8.10;5.40;;;;;;;;;;4449260;32;20249;-53
2021/10/01 14:25:26;;;;;;;13.35;6.82;;;;;;;;;;4447725;32;20698;-53
2021/10/01 14:27:56;;;;;;;12.52;6.78;;;;;;;;;;4449212;32;20221;-53
2021/10/01 14:30:23;;;;;;;7.30;5.93;;;;;;;;;;4448286;32;20854;-52
2021/10/01 14:32:49;;;;;;;7.68;6.12;;;;;;;;;;4448965;32;20270;-52
2021/10/01 14:35:16;;;;;;;9.48;6.12;;;;;;;;;;4448671;32;20616;-54
2021/10/01 14:37:41;;;;;;;11.73;8.10;;;;;;;;;;4448829;32;20212;-53
2021/10/01 14:40:09;;;;;;;10.23;6.47;;;;;;;;;;4448769;32;20307;-55
2021/10/01 14:42:35;;;;;;;9.18;5.57;;;;;;;;;;4448972;32;20422;-52
2021/10/01 14:45:01;;;;;;;7.37;4.87;;;;;;;;;;4449245;32;20280;-53
2021/10/01 14:47:30;;;;;;;6.65;4.97;;;;;;;;;;4448997;32;20312;-52
2021/10/01 14:49:57;;;;;;;8.75;5.10;;;;;;;;;;4449148;32;20208;-52
2021/10/01 14:52:23;;;;;;;7.78;4.65;;;;;;;;;;4447537;32;20220;-52
2021/10/01 14:54:49;;;;;;;9.38;5.00;;;;;;;;;;4448701;32;20325;-53
2021/10/01 14:57:14;;;;;;;8.18;5.37;;;;;;;;;;4448491;32;20289;-52
2021/10/01 14:59:40;;;;;;;8.50;5.00;;;;;;;;;;4448507;32;20330;-52
2021/10/01 15:02:07;;;;;;;8.07;4.60;;;;;;;;;;4448136;32;20548;-52
2021/10/01 15:04:34;;;;;;;5.97;4.50;;;;;;;;;;4447016;32;20232;-51
2021/10/01 15:07:00;;;;;;;7.47;4.62;;;;;;;;;;4447975;32;20209;-52
2021/10/01 15:09:25;;;;;;;8.27;4.87;;;;;;;;;;4448407;32;20313;-52
2021/10/01 15:11:51;;;;;;;11.52;5.20;;;;;;;;;;4448357;32;20201;-52
2021/10/01 15:14:16;;;;;;;9.43;5.82;;;;;;;;;;4447950;32;20358;-52
2021/10/01 15:16:42;;;;;;;15.38;6.18;;;;;;;;;;4448073;32;20222;-52
2021/10/01 15:19:07;;;;;;;11.10;6.65;;;;;;;;;;4447607;32;20236;-52
2021/10/01 15:21:33;;;;;;;10.18;6.43;;;;;;;;;;4446631;32;20238;-53
2021/10/01 15:23:58;;;;;;;15.60;7.70;;;;;;;;;;4448350;32;20213;-53
2021/10/01 15:26:24;;;;;;;8.95;5.95;;;;;;;;;;4448332;32;20205;-53
2021/10/01 15:28:49;;;;;;;9.93;5.75;;;;;;;;;;4448480;32;20254;-53
2021/10/01 15:31:15;;;;;;;8.98;6.37;;;;;;;;;;4445506;32;20252;-52
2021/10/01 15:33:40;;;;;;;11.70;6.78;;;;;;;;;;4435150;32;20279;-52
2021/10/01 15:36:06;;;;;;;12.93;6.60;;;;;;;;;;4439206;32;20417;-53
2021/10/01 15:38:32;;;;;;;12.98;6.62;;;;;;;;;;4446065;32;20252;-52
2021/10/01 15:40:57;;;;;;;15.48;7.22;;;;;;;;;;4446102;32;20213;-52
2021/10/01 15:43:23;;;;;;;22.17;11.40;;;;;;;;;;4446321;32;20672;-51
2021/10/01 15:45:51;;;;;;;14.98;8.90;;;;;;;;;;4444658;32;20282;-52
2021/10/01 15:48:17;;;;;;;10.80;6.75;;;;;;;;;;4446350;32;20718;-51
2021/10/01 15:50:42;;;;;;;9.23;6.07;;;;;;;;;;4453831;32;20252;-52
2021/10/01 15:53:08;;;;;;;20.95;7.53;;;;;;;;;;4458003;32;20300;-52
2021/10/01 15:55:35;;;;;;;12.50;6.60;;;;;;;;;;4447582;32;20237;-52
2021/10/01 15:58:01;;;;;;;11.10;6.85;;;;;;;;;;4456284;32;20303;-52
2021/10/01 16:00:26;;;;;;;11.15;7.00;;;;;;;;;;4463607;32;20722;-53
2021/10/01 16:02:52;;;;;;;10.77;7.00;;;;;;;;;;4449093;32;20244;-53
2021/10/01 16:05:23;;;;;;;9.73;6.28;;;;;;;;;;4447724;32;20268;-55
2021/10/01 16:07:51;;;;;;;13.00;5.87;;;;;;;;;;4447008;32;20307;-53
2021/10/01 16:10:17;;;;;;;18.58;5.75;;;;;;;;;;4447467;32;20782;-54
2021/10/01 16:12:43;;;;;;;8.48;6.60;;;;;;;;;;4447575;32;20276;-52
2021/10/01 16:15:12;;;;;;;9.55;6.15;;;;;;;;;;4447361;32;20742;-53
2021/10/01 16:17:38;;;;;;;16.12;6.03;;;;;;;;;;4447592;32;20278;-52